createdAt,value
2018-09-03T00:01:03.348Z,41
2018-09-03T00:06:01.738Z,41
2018-09-03T00:11:00.137Z,41
2018-09-03T00:15:58.671Z,41
2018-09-03T00:20:57.004Z,41.1
2018-09-03T00:25:55.358Z,41.1
2018-09-03T00:30:53.793Z,41.1
2018-09-03T00:35:52.281Z,41.1
2018-09-03T00:40:50.808Z,41.2
2018-09-03T00:45:49.214Z,41.2
2018-09-03T00:50:47.678Z,41.2
2018-09-03T00:55:46.106Z,41.2
2018-09-03T01:00:44.453Z,41.2
2018-09-03T01:05:42.942Z,41.3
2018-09-03T01:10:41.285Z,41.3
2018-09-03T01:15:39.961Z,41.3
2018-09-03T01:20:38.218Z,41.4
2018-09-03T01:25:36.704Z,41.3
2018-09-03T01:30:34.549Z,41.4
2018-09-03T01:35:32.416Z,41.4
2018-09-03T01:40:30.286Z,41.4
2018-09-03T01:45:28.460Z,41.4
2018-09-03T01:50:26.740Z,41.5
2018-09-03T01:55:25.244Z,41.5
2018-09-03T02:00:23.606Z,41.5
2018-09-03T02:05:21.796Z,41.5
2018-09-03T02:10:20.240Z,41.5
2018-09-03T02:15:18.802Z,41.6
2018-09-03T02:20:17.390Z,41.6
2018-09-03T02:25:15.846Z,41.6
2018-09-03T02:30:13.992Z,41.7
2018-09-03T02:35:12.535Z,41.7
2018-09-03T02:40:11.006Z,41.7
2018-09-03T02:45:09.412Z,41.8
2018-09-03T02:50:07.805Z,41.8
2018-09-03T02:55:06.230Z,41.8
2018-09-03T03:00:04.658Z,41.9
2018-09-03T03:05:03.004Z,41.9
2018-09-03T03:10:01.482Z,41.9
2018-09-03T03:14:59.532Z,41.9
2018-09-03T03:19:58.134Z,41.9
2018-09-03T03:24:56.596Z,42
2018-09-03T03:29:55.084Z,42
2018-09-03T03:34:53.699Z,42.1
2018-09-03T03:39:51.949Z,42.1
2018-09-03T03:44:50.328Z,42.1
2018-09-03T03:49:48.710Z,42.2
2018-09-03T03:54:47.193Z,42.2
2018-09-03T03:59:45.477Z,42.2
2018-09-03T04:04:43.803Z,42.3
2018-09-03T04:09:42.340Z,42.3
2018-09-03T04:14:40.659Z,42.3
2018-09-03T04:19:38.959Z,42.3
2018-09-03T04:24:37.442Z,42.4
2018-09-03T04:29:35.906Z,42.4
2018-09-03T04:34:34.483Z,42.4
2018-09-03T04:39:32.559Z,42.4
2018-09-03T04:44:30.589Z,42.5
2018-09-03T04:49:29.008Z,42.4
2018-09-03T04:54:27.197Z,42.4
2018-09-03T04:59:25.528Z,42.5
2018-09-03T05:04:23.906Z,42.4
2018-09-03T05:09:22.160Z,42.5
2018-09-03T05:14:20.561Z,42.5
2018-09-03T05:19:19.121Z,42.5
2018-09-03T05:24:17.662Z,42.4
2018-09-03T05:29:16.294Z,42.4
2018-09-03T05:34:14.475Z,42.5
2018-09-03T05:39:13.097Z,42.5
2018-09-03T05:44:11.294Z,42.6
2018-09-03T05:49:09.555Z,42.6
2018-09-03T05:54:07.447Z,42.7
2018-09-03T05:59:05.637Z,42.7
2018-09-03T06:04:03.973Z,42.7
2018-09-03T06:09:02.104Z,42.8
2018-09-03T06:14:00.511Z,42.9
2018-09-03T06:18:59.227Z,42.9
2018-09-03T06:23:57.259Z,42.9
2018-09-03T06:28:55.722Z,43
2018-09-03T06:33:54.200Z,43
2018-09-03T06:38:52.492Z,43.1
2018-09-03T06:43:51.254Z,43.1
2018-09-03T06:48:49.713Z,43.2
2018-09-03T06:53:48.174Z,43.3
2018-09-03T06:58:46.662Z,43.4
2018-09-03T07:03:45.019Z,43.5
2018-09-03T07:08:43.541Z,43.6
2018-09-03T07:13:41.944Z,43.6
2018-09-03T07:18:40.690Z,43.7
2018-09-03T07:23:39.236Z,43.8
2018-09-03T07:28:37.853Z,43.8
2018-09-03T07:33:36.317Z,43.9
2018-09-03T07:38:35.030Z,44
2018-09-03T07:43:33.395Z,44
2018-09-03T07:48:31.897Z,44.1
2018-09-03T07:53:30.260Z,44.2
2018-09-03T07:58:28.767Z,44.2
2018-09-03T08:03:27.419Z,44.3
2018-09-03T08:08:26.003Z,44.3
2018-09-03T08:13:23.986Z,44.4
2018-09-03T08:18:22.195Z,44.5
2018-09-03T08:23:20.806Z,44.6
2018-09-03T08:28:19.213Z,44.7
2018-09-03T08:33:18.070Z,44.8
2018-09-03T08:38:16.675Z,44.9
2018-09-03T08:43:15.435Z,44.9
2018-09-03T08:48:14.194Z,45
2018-09-03T08:53:12.514Z,45.1
2018-09-03T08:58:11.065Z,45.1
2018-09-03T09:03:10.378Z,45.1
2018-09-03T09:08:09.377Z,45.2
2018-09-03T09:13:10.938Z,45.2
2018-09-03T09:18:09.927Z,45.2
2018-09-03T09:23:09.415Z,45.2
2018-09-03T09:28:10.978Z,45.3
2018-09-03T09:33:09.811Z,45.3
2018-09-03T09:38:08.478Z,45.4
2018-09-03T09:43:07.344Z,45.5
2018-09-03T09:48:06.644Z,45.5
2018-09-03T09:53:05.187Z,45.5
2018-09-03T09:58:03.636Z,45.6
2018-09-03T10:03:02.301Z,45.5
2018-09-03T10:08:00.910Z,45.5
2018-09-03T10:12:59.756Z,45.6
2018-09-03T10:17:58.741Z,45.6
2018-09-03T10:22:57.317Z,45.6
2018-09-03T10:27:55.944Z,45.6
2018-09-03T10:32:54.382Z,45.6
2018-09-03T10:37:52.796Z,45.5
2018-09-03T10:42:51.320Z,45.5
2018-09-03T10:47:49.887Z,45.5
2018-09-03T10:52:50.198Z,45.5
2018-09-03T10:57:48.511Z,45.5
2018-09-03T11:02:47.112Z,45.6
2018-09-03T11:07:45.760Z,45.5
2018-09-03T11:12:44.485Z,45.5
2018-09-03T11:17:42.944Z,45.5
2018-09-03T11:22:41.183Z,45.5
2018-09-03T11:27:39.887Z,45.6
2018-09-03T11:32:38.462Z,45.5
2018-09-03T11:37:36.933Z,45.5
2018-09-03T11:42:35.400Z,45.5
2018-09-03T11:47:34.067Z,45.5
2018-09-03T11:52:32.674Z,45.5
2018-09-03T11:57:31.051Z,45.4
2018-09-03T12:02:29.915Z,45.4
2018-09-03T12:07:28.386Z,45.4
2018-09-03T12:12:27.161Z,45.4
2018-09-03T12:17:25.833Z,45.4
2018-09-03T12:22:24.566Z,45.3
2018-09-03T12:27:23.297Z,45.3
2018-09-03T12:32:22.484Z,45.3
2018-09-03T12:37:21.143Z,45.3
2018-09-03T12:42:20.132Z,45.3
2018-09-03T12:47:18.900Z,45.2
2018-09-03T12:52:18.226Z,45.2
2018-09-03T12:57:16.772Z,45.2
2018-09-03T13:02:15.410Z,45.2
2018-09-03T13:07:14.161Z,45.1
2018-09-03T13:12:12.719Z,45.1
2018-09-03T13:17:11.400Z,45.1
2018-09-03T13:22:10.034Z,45
2018-09-03T13:27:08.702Z,44.9
2018-09-03T13:32:07.353Z,44.8
2018-09-03T13:37:05.820Z,44.7
2018-09-03T13:42:04.685Z,44.6
2018-09-03T13:47:03.273Z,44.7
2018-09-03T13:52:01.794Z,44.6
2018-09-03T13:57:00.591Z,44.5
2018-09-03T14:01:59.244Z,44.4
2018-09-03T14:06:57.740Z,44.4
2018-09-03T14:11:56.372Z,44.4
2018-09-03T14:16:55.035Z,44.3
2018-09-03T14:21:53.700Z,44.3
2018-09-03T14:26:57.839Z,44.3
2018-09-03T14:31:55.779Z,44.3
2018-09-03T14:36:54.524Z,44.3
2018-09-03T14:41:53.119Z,44.2
2018-09-03T14:46:51.648Z,44.2
2018-09-03T14:51:50.461Z,44.3
2018-09-03T14:56:48.865Z,44.3
2018-09-03T15:01:47.464Z,44.2
2018-09-03T15:06:46.092Z,44.2
2018-09-03T15:11:46.545Z,44.1
2018-09-03T15:16:44.778Z,44.1
2018-09-03T15:21:43.332Z,44.1
2018-09-03T15:26:42.104Z,44
2018-09-03T15:31:40.881Z,44
2018-09-03T15:36:40.135Z,44
2018-09-03T15:41:38.962Z,44
2018-09-03T15:46:37.712Z,44
2018-09-03T15:51:36.345Z,44
2018-09-03T15:56:35.623Z,44
2018-09-03T16:01:34.515Z,44
2018-09-03T16:06:32.942Z,44
2018-09-03T16:11:31.287Z,44.1
2018-09-03T16:16:30.031Z,44.1
2018-09-03T16:21:28.595Z,44.1
2018-09-03T16:26:27.075Z,44.1
2018-09-03T16:31:25.838Z,44.1
2018-09-03T16:36:24.261Z,44.1
2018-09-03T16:41:22.856Z,44.1
2018-09-03T16:46:22.166Z,44.2
2018-09-03T16:51:20.637Z,44.2
2018-09-03T16:56:19.054Z,44.2
2018-09-03T17:01:20.205Z,44.2
2018-09-03T17:06:18.663Z,44.2
2018-09-03T17:11:17.427Z,44.2
2018-09-03T17:16:15.773Z,44.3
2018-09-03T17:21:14.268Z,44.3
2018-09-03T17:26:12.254Z,44.3
2018-09-03T17:31:10.912Z,44.3
2018-09-03T17:36:09.628Z,44.3
2018-09-03T17:41:08.099Z,44.3
2018-09-03T17:46:06.650Z,44.2
2018-09-03T17:51:05.361Z,44.2
2018-09-03T17:56:03.989Z,44.3
2018-09-03T18:01:02.524Z,44.3
2018-09-03T18:06:01.062Z,44.3
2018-09-03T18:11:00.813Z,44.4
2018-09-03T18:15:59.163Z,44.4
2018-09-03T18:20:57.617Z,44.4
2018-09-03T18:25:56.264Z,44.4
2018-09-03T18:30:54.907Z,44.4
2018-09-03T18:35:53.413Z,44.4
2018-09-03T18:40:53.012Z,44.4
2018-09-03T18:45:52.002Z,44.4
2018-09-03T18:50:50.152Z,44.4
2018-09-03T18:55:48.753Z,44.5
2018-09-03T19:00:51.061Z,44.5
2018-09-03T19:05:48.948Z,44.5
2018-09-03T19:10:47.542Z,44.6
2018-09-03T19:15:46.076Z,44.6
2018-09-03T19:20:44.555Z,44.6
2018-09-03T19:25:43.359Z,44.7
2018-09-03T19:30:42.150Z,44.7
2018-09-03T19:35:40.599Z,44.7
2018-09-03T19:40:39.196Z,44.6
2018-09-03T19:45:37.374Z,44.5
2018-09-03T19:50:35.905Z,44.5
2018-09-03T19:55:34.379Z,44.5
2018-09-03T20:00:33.071Z,44.5
2018-09-03T20:05:31.629Z,44.6
2018-09-03T20:10:30.293Z,44.6
2018-09-03T20:15:28.946Z,44.6
2018-09-03T20:20:27.141Z,44.7
2018-09-03T20:25:25.871Z,44.8
2018-09-03T20:30:24.482Z,44.9
2018-09-03T20:35:23.025Z,45
2018-09-03T20:40:21.391Z,45.1
2018-09-03T20:45:20.022Z,45.1
2018-09-03T20:50:18.033Z,45
2018-09-03T20:55:16.574Z,44.9
2018-09-03T21:00:14.680Z,44.8
2018-09-03T21:05:13.240Z,44.8
2018-09-03T21:10:11.800Z,44.8
2018-09-03T21:15:10.239Z,44.8
2018-09-03T21:20:08.326Z,44.8
2018-09-03T21:25:06.815Z,45
2018-09-03T21:30:04.967Z,45.2
2018-09-03T21:35:03.527Z,45.3
2018-09-03T21:40:01.915Z,45.4
2018-09-03T21:45:00.389Z,45.5
2018-09-03T21:49:58.878Z,45.5
2018-09-03T21:54:57.329Z,45.6
2018-09-03T21:59:55.874Z,45.5
2018-09-03T22:04:54.366Z,45.3
2018-09-03T22:09:53.002Z,45.2
2018-09-03T22:14:51.382Z,45.2
2018-09-03T22:19:49.989Z,45.2
2018-09-03T22:24:48.599Z,45.2
2018-09-03T22:29:47.141Z,45.1
2018-09-03T22:34:45.682Z,45.3
2018-09-03T22:39:44.171Z,45.3
2018-09-03T22:44:42.523Z,45.5
2018-09-03T22:49:40.940Z,45.7
2018-09-03T22:54:39.664Z,45.7
2018-09-03T22:59:38.110Z,45.8
2018-09-03T23:04:36.765Z,45.9
2018-09-03T23:09:35.123Z,45.9
2018-09-03T23:14:33.703Z,45.7
2018-09-03T23:19:32.024Z,45.6
2018-09-03T23:24:30.726Z,45.5
2018-09-03T23:29:28.816Z,45.5
2018-09-03T23:34:27.338Z,45.5
2018-09-03T23:39:25.969Z,45.5
2018-09-03T23:44:24.546Z,45.7
2018-09-03T23:49:23.106Z,45.8
2018-09-03T23:54:21.520Z,45.8
2018-09-03T23:59:20.167Z,45.9
